createdAt,value
2019-05-09T00:00:11.000Z,98489
2019-05-09T00:01:12.000Z,98489
2019-05-09T00:02:12.000Z,98490
2019-05-09T00:03:12.000Z,98489
2019-05-09T00:05:12.000Z,98489
2019-05-09T00:07:12.000Z,98487
2019-05-09T00:09:12.000Z,98489
2019-05-09T00:11:12.000Z,98488
2019-05-09T00:13:12.000Z,98494
2019-05-09T00:15:12.000Z,98493
2019-05-09T00:17:12.000Z,98487
2019-05-09T00:18:12.000Z,98480
2019-05-09T00:19:12.000Z,98484
2019-05-09T00:21:11.000Z,98487
2019-05-09T00:22:12.000Z,98492
2019-05-09T00:24:12.000Z,98495
2019-05-09T00:25:12.000Z,98486
2019-05-09T00:27:12.000Z,98491
2019-05-09T00:29:12.000Z,98488
2019-05-09T00:31:12.000Z,98491
2019-05-09T00:33:12.000Z,98486
2019-05-09T00:35:12.000Z,98487
2019-05-09T00:37:12.000Z,98486
2019-05-09T00:39:12.000Z,98487
2019-05-09T00:40:58.000Z,98484
2019-05-09T00:42:12.000Z,98488
2019-05-09T00:44:12.000Z,98479
2019-05-09T00:46:12.000Z,98484
2019-05-09T00:48:11.000Z,98481
2019-05-09T00:49:12.000Z,98479
2019-05-09T00:50:12.000Z,98483
2019-05-09T00:52:12.000Z,98486
2019-05-09T00:54:11.000Z,98485
2019-05-09T00:55:12.000Z,98491
2019-05-09T00:57:12.000Z,98484
2019-05-09T00:59:12.000Z,98486
2019-05-09T01:01:12.000Z,98489
2019-05-09T01:03:12.000Z,98490
2019-05-09T01:05:12.000Z,98487
2019-05-09T01:06:12.000Z,98485
2019-05-09T01:07:12.000Z,98484
2019-05-09T01:09:12.000Z,98485
2019-05-09T01:10:12.000Z,98484
2019-05-09T01:12:12.000Z,98485
2019-05-09T01:13:12.000Z,98489
2019-05-09T01:14:12.000Z,98489
2019-05-09T01:15:12.000Z,98486
2019-05-09T01:17:12.000Z,98485
2019-05-09T01:19:12.000Z,98485
2019-05-09T01:21:12.000Z,98486
2019-05-09T01:23:12.000Z,98489
2019-05-09T01:25:12.000Z,98489
2019-05-09T01:27:12.000Z,98489
2019-05-09T01:29:12.000Z,98492
2019-05-09T01:31:12.000Z,98491
2019-05-09T01:33:12.000Z,98491
2019-05-09T01:35:12.000Z,98487
2019-05-09T01:37:12.000Z,98485
2019-05-09T01:39:12.000Z,98485
2019-05-09T01:41:12.000Z,98489
2019-05-09T01:43:12.000Z,98488
2019-05-09T01:45:12.000Z,98486
2019-05-09T01:47:12.000Z,98488
2019-05-09T01:49:12.000Z,98491
2019-05-09T01:50:12.000Z,98488
2019-05-09T01:51:12.000Z,98490
2019-05-09T01:53:12.000Z,98492
2019-05-09T01:54:12.000Z,98490
2019-05-09T01:56:12.000Z,98488
2019-05-09T01:58:12.000Z,98486
2019-05-09T02:00:12.000Z,98490
2019-05-09T02:02:12.000Z,98483
2019-05-09T02:04:12.000Z,98488
2019-05-09T02:06:12.000Z,98482
2019-05-09T02:08:12.000Z,98480
2019-05-09T02:10:12.000Z,98484
2019-05-09T02:12:12.000Z,98478
2019-05-09T02:14:11.000Z,98478
2019-05-09T02:15:12.000Z,98477
2019-05-09T02:17:12.000Z,98474
2019-05-09T02:19:12.000Z,98473
2019-05-09T02:20:12.000Z,98479
2019-05-09T02:21:12.000Z,98476
2019-05-09T02:23:12.000Z,98486
2019-05-09T02:25:12.000Z,98475
2019-05-09T02:27:12.000Z,98475
2019-05-09T02:29:12.000Z,98476
2019-05-09T02:31:12.000Z,98470
2019-05-09T02:33:12.000Z,98471
2019-05-09T02:35:27.000Z,98467
2019-05-09T02:36:57.000Z,98470
2019-05-09T02:38:13.000Z,98469
2019-05-09T02:40:13.000Z,98466
2019-05-09T02:42:07.000Z,98465
2019-05-09T02:43:57.000Z,98471
2019-05-09T02:45:13.000Z,98464
2019-05-09T02:47:13.000Z,98469
2019-05-09T02:49:13.000Z,98467
2019-05-09T02:50:59.000Z,98466
2019-05-09T02:53:13.000Z,98465
2019-05-09T02:55:12.000Z,98466
2019-05-09T02:57:12.000Z,98464
2019-05-09T02:58:58.000Z,98469
2019-05-09T03:01:14.000Z,98468
2019-05-09T03:02:57.000Z,98463
2019-05-09T03:04:13.000Z,98465
2019-05-09T03:06:14.000Z,98460
2019-05-09T03:08:12.000Z,98459
2019-05-09T03:10:12.000Z,98462
2019-05-09T03:11:58.000Z,98462
2019-05-09T03:13:14.000Z,98459
2019-05-09T03:15:13.000Z,98458
2019-05-09T03:17:13.000Z,98465
2019-05-09T03:18:57.000Z,98463
2019-05-09T03:20:13.000Z,98464
2019-05-09T03:21:57.000Z,98461
2019-05-09T03:23:58.000Z,98451
2019-05-09T03:25:57.000Z,98457
2019-05-09T03:27:14.000Z,98450
2019-05-09T03:29:13.000Z,98456
2019-05-09T03:30:59.000Z,98452
2019-05-09T03:33:14.000Z,98445
2019-05-09T03:35:12.000Z,98444
2019-05-09T03:36:57.000Z,98446
2019-05-09T03:38:27.000Z,98450
2019-05-09T03:39:57.000Z,98449
2019-05-09T03:40:57.000Z,98446
2019-05-09T03:42:27.000Z,98448
2019-05-09T03:43:57.000Z,98448
2019-05-09T03:45:12.000Z,98449
2019-05-09T03:47:12.000Z,98451
2019-05-09T03:49:12.000Z,98451
2019-05-09T03:51:12.000Z,98456
2019-05-09T03:53:12.000Z,98456
2019-05-09T03:55:12.000Z,98454
2019-05-09T03:57:27.000Z,98453
2019-05-09T03:58:57.000Z,98449
2019-05-09T04:00:27.000Z,98455
2019-05-09T04:01:57.000Z,98459
2019-05-09T04:03:12.000Z,98462
2019-05-09T04:05:12.000Z,98461
2019-05-09T04:06:57.000Z,98461
2019-05-09T04:07:57.000Z,98460
2019-05-09T04:09:13.000Z,98460
2019-05-09T04:11:13.000Z,98454
2019-05-09T04:13:14.000Z,98461
2019-05-09T04:14:57.000Z,98453
2019-05-09T04:16:12.000Z,98458
2019-05-09T04:17:27.000Z,98465
2019-05-09T04:18:57.000Z,98469
2019-05-09T04:20:12.000Z,98462
2019-05-09T04:21:27.000Z,98465
2019-05-09T04:22:57.000Z,98462
2019-05-09T04:24:13.000Z,98464
2019-05-09T04:25:57.000Z,98465
2019-05-09T04:27:27.000Z,98463
2019-05-09T04:29:12.000Z,98464
2019-05-09T04:30:27.000Z,98458
2019-05-09T04:32:27.000Z,98461
2019-05-09T04:34:27.000Z,98464
2019-05-09T04:36:12.000Z,98465
2019-05-09T04:38:12.000Z,98468
2019-05-09T04:40:01.000Z,98471
2019-05-09T04:42:03.000Z,98469
2019-05-09T04:44:12.000Z,98470
2019-05-09T04:45:57.000Z,98472
2019-05-09T04:46:57.000Z,98473
2019-05-09T04:48:12.000Z,98466
2019-05-09T04:49:56.000Z,98478
2019-05-09T04:50:57.000Z,98471
2019-05-09T04:53:12.000Z,98479
2019-05-09T04:55:27.000Z,98474
2019-05-09T04:57:11.000Z,98478
2019-05-09T04:59:12.000Z,98476
2019-05-09T05:00:27.000Z,98471
2019-05-09T05:01:27.000Z,98480
2019-05-09T05:03:27.000Z,98475
2019-05-09T05:04:57.000Z,98475
2019-05-09T05:06:13.000Z,98480
2019-05-09T05:08:27.000Z,98478
2019-05-09T05:10:12.000Z,98483
2019-05-09T05:12:12.000Z,98483
2019-05-09T05:13:58.000Z,98482
2019-05-09T05:16:12.000Z,98484
2019-05-09T05:18:12.000Z,98482
2019-05-09T05:20:12.000Z,98484
2019-05-09T05:21:27.000Z,98486
2019-05-09T05:22:57.000Z,98482
2019-05-09T05:24:12.000Z,98488
2019-05-09T05:26:12.000Z,98485
2019-05-09T05:27:57.000Z,98492
2019-05-09T05:29:57.000Z,98493
2019-05-09T05:31:13.000Z,98485
2019-05-09T05:32:57.000Z,98484
2019-05-09T05:34:12.000Z,98486
2019-05-09T05:35:27.000Z,98487
2019-05-09T05:36:57.000Z,98490
2019-05-09T05:38:13.000Z,98495
2019-05-09T05:40:13.000Z,98490
2019-05-09T05:42:12.000Z,98492
2019-05-09T05:44:13.000Z,98490
2019-05-09T05:46:13.000Z,98501
2019-05-09T05:48:12.000Z,98497
2019-05-09T05:50:12.000Z,98498
2019-05-09T05:52:12.000Z,98504
2019-05-09T05:54:01.000Z,98502
2019-05-09T05:56:13.000Z,98512
2019-05-09T05:58:12.000Z,98509
2019-05-09T06:00:13.000Z,98512
2019-05-09T06:02:13.000Z,98508
2019-05-09T06:04:13.000Z,98501
2019-05-09T06:06:13.000Z,98505
2019-05-09T06:08:12.000Z,98509
2019-05-09T06:10:12.000Z,98499
2019-05-09T06:11:57.000Z,98500
2019-05-09T06:13:27.000Z,98503
2019-05-09T06:15:13.000Z,98502
2019-05-09T06:17:13.000Z,98498
2019-05-09T06:19:13.000Z,98496
2019-05-09T06:20:57.000Z,98497
2019-05-09T06:22:27.000Z,98493
2019-05-09T06:23:58.000Z,98498
2019-05-09T06:25:57.000Z,98499
2019-05-09T06:26:57.000Z,98496
2019-05-09T06:28:13.000Z,98503
2019-05-09T06:30:12.000Z,98504
2019-05-09T06:31:57.000Z,98500
2019-05-09T06:33:12.000Z,98509
2019-05-09T06:35:12.000Z,98506
2019-05-09T06:36:58.000Z,98507
2019-05-09T06:38:13.000Z,98514
2019-05-09T06:40:12.000Z,98515
2019-05-09T06:42:27.000Z,98512
2019-05-09T06:43:57.000Z,98520
2019-05-09T06:45:12.000Z,98526
2019-05-09T06:46:27.000Z,98528
2019-05-09T06:47:59.000Z,98528
2019-05-09T06:50:27.000Z,98525
2019-05-09T06:52:12.000Z,98530
2019-05-09T06:53:27.000Z,98524
2019-05-09T06:55:12.000Z,98531
2019-05-09T06:57:13.000Z,98526
2019-05-09T06:58:57.000Z,98533
2019-05-09T07:00:12.000Z,98526
2019-05-09T07:02:27.000Z,98528
2019-05-09T07:04:27.000Z,98528
2019-05-09T07:06:27.000Z,98523
2019-05-09T07:08:12.000Z,98521
2019-05-09T07:10:13.000Z,98521
2019-05-09T07:11:57.000Z,98524
2019-05-09T07:13:13.000Z,98529
2019-05-09T07:14:57.000Z,98519
2019-05-09T07:16:13.000Z,98521
2019-05-09T07:18:27.000Z,98519
2019-05-09T07:20:13.000Z,98518
2019-05-09T07:21:57.000Z,98515
2019-05-09T07:22:57.000Z,98514
2019-05-09T07:24:12.000Z,98516
2019-05-09T07:25:57.000Z,98511
2019-05-09T07:26:57.000Z,98507
2019-05-09T07:28:13.000Z,98508
2019-05-09T07:29:57.000Z,98510
2019-05-09T07:31:27.000Z,98516
2019-05-09T07:32:57.000Z,98504
2019-05-09T07:33:57.000Z,98511
2019-05-09T07:36:12.000Z,98513
2019-05-09T07:38:12.000Z,98516
2019-05-09T07:40:12.000Z,98507
2019-05-09T07:41:57.000Z,98511
2019-05-09T07:43:13.000Z,98514
2019-05-09T07:45:14.000Z,98523
2019-05-09T07:47:12.000Z,98522
2019-05-09T07:49:12.000Z,98520
2019-05-09T07:50:59.000Z,98522
2019-05-09T07:53:13.000Z,98518
2019-05-09T07:55:12.000Z,98526
2019-05-09T07:57:12.000Z,98516
2019-05-09T07:58:57.000Z,98510
2019-05-09T08:00:13.000Z,98509
2019-05-09T08:02:13.000Z,98511
2019-05-09T08:03:57.000Z,98516
2019-05-09T08:05:12.000Z,98522
2019-05-09T08:06:57.000Z,98522
2019-05-09T08:07:57.000Z,98518
2019-05-09T08:09:13.000Z,98521
2019-05-09T08:11:13.000Z,98515
2019-05-09T08:13:13.000Z,98514
2019-05-09T08:15:12.000Z,98520
2019-05-09T08:16:57.000Z,98517
2019-05-09T08:18:14.000Z,98511
2019-05-09T08:20:13.000Z,98513
2019-05-09T08:21:57.000Z,98516
2019-05-09T08:22:57.000Z,98512
2019-05-09T08:24:12.000Z,98516
2019-05-09T08:26:12.000Z,98507
2019-05-09T08:28:13.000Z,98509
2019-05-09T08:30:13.000Z,98503
2019-05-09T08:31:13.000Z,98507
2019-05-09T08:32:57.000Z,98502
2019-05-09T08:34:14.000Z,98510
2019-05-09T08:36:13.000Z,98507
2019-05-09T08:37:57.000Z,98503
2019-05-09T08:38:58.000Z,98500
2019-05-09T08:41:13.000Z,98507
2019-05-09T08:43:13.000Z,98505
2019-05-09T08:48:29.000Z,98508
2019-05-09T08:49:47.000Z,98504
2019-05-09T08:50:48.000Z,98512
2019-05-09T08:53:15.000Z,98512
2019-05-09T08:55:15.000Z,98516
2019-05-09T08:56:45.000Z,98510
2019-05-09T08:58:03.000Z,98510
2019-05-09T08:59:49.000Z,98509
2019-05-09T09:01:00.000Z,98505
2019-05-09T09:02:00.000Z,98507
2019-05-09T09:04:15.000Z,98499
2019-05-09T09:05:15.000Z,98506
2019-05-09T09:07:15.000Z,98505
2019-05-09T09:08:45.000Z,98501
2019-05-09T09:10:03.000Z,98498
2019-05-09T09:11:15.000Z,98495
2019-05-09T09:12:45.000Z,98500
2019-05-09T09:14:15.000Z,98496
2019-05-09T09:15:45.000Z,98496
2019-05-09T09:17:02.000Z,98491
2019-05-09T09:18:15.000Z,98490
2019-05-09T09:19:45.000Z,98491
2019-05-09T09:21:15.000Z,98492
2019-05-09T09:22:45.000Z,98489
2019-05-09T09:23:50.000Z,98496
2019-05-09T09:26:15.000Z,98492
2019-05-09T09:27:45.000Z,98491
2019-05-09T09:29:15.000Z,98489
2019-05-09T09:30:45.000Z,98487
2019-05-09T09:32:15.000Z,98486
2019-05-09T09:33:45.000Z,98483
2019-05-09T09:34:48.000Z,98483
2019-05-09T09:36:15.000Z,98487
2019-05-09T09:37:45.000Z,98505
2019-05-09T09:39:02.000Z,98481
2019-05-09T09:40:15.000Z,98481
2019-05-09T09:41:45.000Z,98486
2019-05-09T09:43:15.000Z,98489
2019-05-09T09:44:45.000Z,98495
2019-05-09T09:45:48.000Z,98482
2019-05-09T09:47:45.000Z,98484
2019-05-09T09:49:03.000Z,98481
2019-05-09T09:50:15.000Z,98476
2019-05-09T09:52:15.000Z,98475
2019-05-09T09:54:15.000Z,98480
2019-05-09T09:55:45.000Z,98486
2019-05-09T09:57:03.000Z,98478
2019-05-09T09:59:15.000Z,98481
2019-05-09T10:01:03.000Z,98494
2019-05-09T10:02:45.000Z,98490
2019-05-09T10:04:02.000Z,98479
2019-05-09T10:05:15.000Z,98490
2019-05-09T10:06:15.000Z,98478
2019-05-09T10:07:45.000Z,98472
2019-05-09T10:09:15.000Z,98481
2019-05-09T10:10:45.000Z,98472
2019-05-09T10:12:03.000Z,98484
2019-05-09T10:13:48.000Z,98484
2019-05-09T10:15:15.000Z,98486
2019-05-09T10:17:02.000Z,98478
2019-05-09T10:19:15.000Z,98471
2019-05-09T10:21:15.000Z,98484
2019-05-09T10:22:15.000Z,98479
2019-05-09T10:24:03.000Z,98497
2019-05-09T10:26:15.000Z,98486
2019-05-09T10:28:03.000Z,98486
2019-05-09T10:29:15.000Z,98488
2019-05-09T10:31:15.000Z,98481
2019-05-09T10:33:02.000Z,98481
2019-05-09T10:34:48.000Z,98489
2019-05-09T10:36:47.000Z,98486
2019-05-09T10:38:15.000Z,98479
2019-05-09T10:40:15.000Z,98483
2019-05-09T10:41:46.000Z,98461
2019-05-09T10:43:03.000Z,98478
2019-05-09T10:44:15.000Z,98474
2019-05-09T10:46:15.000Z,98479
2019-05-09T10:48:15.000Z,98482
2019-05-09T10:50:15.000Z,98479
2019-05-09T10:52:15.000Z,98500
2019-05-09T10:53:45.000Z,98477
2019-05-09T10:55:15.000Z,98479
2019-05-09T10:57:15.000Z,98479
2019-05-09T10:58:47.000Z,98475
2019-05-09T11:01:02.000Z,98479
2019-05-09T11:03:02.000Z,98474
2019-05-09T11:04:45.000Z,98479
2019-05-09T11:06:15.000Z,98474
2019-05-09T11:08:00.000Z,98480
2019-05-09T11:10:02.000Z,98467
2019-05-09T11:11:45.000Z,98476
2019-05-09T11:13:02.000Z,98468
2019-05-09T11:15:03.000Z,98479
2019-05-09T11:16:48.000Z,98482
2019-05-09T11:18:02.000Z,98475
2019-05-09T11:19:47.000Z,98475
2019-05-09T11:21:15.000Z,98480
2019-05-09T11:23:15.000Z,98478
2019-05-09T11:24:45.000Z,98456
2019-05-09T11:26:01.000Z,98471
2019-05-09T11:28:00.000Z,98478
2019-05-09T11:29:45.000Z,98475
2019-05-09T11:31:02.000Z,98467
2019-05-09T11:32:45.000Z,98471
2019-05-09T11:35:03.000Z,98478
2019-05-09T11:37:15.000Z,98487
2019-05-09T11:39:00.000Z,98485
2019-05-09T11:41:15.000Z,98483
2019-05-09T11:43:15.000Z,98481
2019-05-09T11:45:15.000Z,98510
2019-05-09T11:46:45.000Z,98499
2019-05-09T11:48:01.000Z,98495
2019-05-09T11:49:15.000Z,98502
2019-05-09T11:50:45.000Z,98501
2019-05-09T11:52:02.000Z,98508
2019-05-09T11:53:15.000Z,98513
2019-05-09T11:54:45.000Z,98511
2019-05-09T11:56:02.000Z,98510
2019-05-09T11:58:03.000Z,98519
2019-05-09T12:00:03.000Z,98517
2019-05-09T12:01:45.000Z,98517
2019-05-09T12:03:00.000Z,98523
2019-05-09T12:05:15.000Z,98523
2019-05-09T12:07:15.000Z,98523
2019-05-09T12:08:48.000Z,98526
2019-05-09T12:10:15.000Z,98526
2019-05-09T12:11:45.000Z,98519
2019-05-09T12:13:02.000Z,98518
2019-05-09T12:14:48.000Z,98525
2019-05-09T12:17:03.000Z,98528
2019-05-09T12:19:15.000Z,98524
2019-05-09T12:21:15.000Z,98532
2019-05-09T12:23:15.000Z,98533
2019-05-09T12:24:45.000Z,98514
2019-05-09T12:26:15.000Z,98533
2019-05-09T12:28:00.000Z,98525
2019-05-09T12:30:03.000Z,98534
2019-05-09T12:31:15.000Z,98531
2019-05-09T12:33:00.000Z,98480
2019-05-09T12:34:47.000Z,98530
2019-05-09T12:36:49.000Z,98516
2019-05-09T12:38:00.000Z,98531
2019-05-09T12:40:03.000Z,98531
2019-05-09T12:41:48.000Z,98532
2019-05-09T12:43:15.000Z,98534
2019-05-09T12:45:00.000Z,98536
2019-05-09T12:47:15.000Z,98538
2019-05-09T12:48:45.000Z,98526
2019-05-09T12:50:00.000Z,98538
2019-05-09T12:52:15.000Z,98550
2019-05-09T12:53:45.000Z,98522
2019-05-09T12:54:48.000Z,98543
2019-05-09T12:57:15.000Z,98544
2019-05-09T12:58:45.000Z,98542
2019-05-09T12:59:52.000Z,98539
2019-05-09T13:01:15.000Z,98548
2019-05-09T13:03:15.000Z,98546
2019-05-09T13:04:45.000Z,98550
2019-05-09T13:06:02.000Z,98551
2019-05-09T13:07:15.000Z,98558
2019-05-09T13:08:47.000Z,98552
2019-05-09T13:11:00.000Z,98541
2019-05-09T13:12:45.000Z,98551
2019-05-09T13:14:02.000Z,98559
2019-05-09T13:15:15.000Z,98561
2019-05-09T13:16:45.000Z,98566
2019-05-09T13:18:02.000Z,98568
2019-05-09T13:19:47.000Z,98547
2019-05-09T13:21:15.000Z,98562
2019-05-09T13:22:45.000Z,98555
2019-05-09T13:24:15.000Z,98567
2019-05-09T13:26:15.000Z,98575
2019-05-09T13:27:45.000Z,98564
2019-05-09T13:29:15.000Z,98562
2019-05-09T13:30:15.000Z,98571
2019-05-09T13:31:45.000Z,98557
2019-05-09T13:33:03.000Z,98576
2019-05-09T13:35:15.000Z,98575
2019-05-09T13:37:15.000Z,98573
2019-05-09T13:38:15.000Z,98569
2019-05-09T13:39:45.000Z,98569
2019-05-09T13:40:53.000Z,98569
2019-05-09T13:42:45.000Z,98553
2019-05-09T13:43:57.000Z,98576
2019-05-09T13:45:45.000Z,98570
2019-05-09T13:47:00.000Z,98575
2019-05-09T13:49:00.000Z,98578
2019-05-09T13:51:15.000Z,98581
2019-05-09T13:52:45.000Z,98581
2019-05-09T13:54:03.000Z,98579
2019-05-09T13:56:02.000Z,98588
2019-05-09T13:57:45.000Z,98585
2019-05-09T13:59:15.000Z,98592
2019-05-09T14:00:45.000Z,98583
2019-05-09T14:02:02.000Z,98587
2019-05-09T14:04:15.000Z,98593
2019-05-09T14:06:03.000Z,98588
2019-05-09T14:07:15.000Z,98595
2019-05-09T14:08:48.000Z,98590
2019-05-09T14:10:48.000Z,98590
2019-05-09T14:13:00.000Z,98587
2019-05-09T14:14:15.000Z,98589
2019-05-09T14:16:00.000Z,98594
2019-05-09T14:17:45.000Z,98589
2019-05-09T14:19:50.000Z,98593
2019-05-09T14:21:15.000Z,98596
2019-05-09T14:23:00.000Z,98596
2019-05-09T14:24:46.000Z,98597
2019-05-09T14:25:51.000Z,98603
2019-05-09T14:27:45.000Z,98607
2019-05-09T14:29:15.000Z,98605
2019-05-09T14:30:45.000Z,98606
2019-05-09T14:32:00.000Z,98613
2019-05-09T14:33:45.000Z,98615
2019-05-09T14:35:03.000Z,98609
2019-05-09T14:36:49.000Z,98607
2019-05-09T14:38:15.000Z,98611
2019-05-09T14:39:45.000Z,98605
2019-05-09T14:41:02.000Z,98607
2019-05-09T14:43:15.000Z,98618
2019-05-09T14:44:45.000Z,98616
2019-05-09T14:46:03.000Z,98614
2019-05-09T14:48:15.000Z,98616
2019-05-09T14:49:45.000Z,98615
2019-05-09T14:51:15.000Z,98620
2019-05-09T14:53:15.000Z,98627
2019-05-09T14:54:45.000Z,98617
2019-05-09T14:56:02.000Z,98629
2019-05-09T14:57:03.000Z,98622
2019-05-09T14:59:15.000Z,98629
2019-05-09T15:00:15.000Z,98630
2019-05-09T15:02:15.000Z,98625
2019-05-09T15:03:45.000Z,98626
2019-05-09T15:05:00.000Z,98616
2019-05-09T15:07:15.000Z,98625
2019-05-09T15:08:45.000Z,98626
2019-05-09T15:10:15.000Z,98630
2019-05-09T15:11:48.000Z,98629
2019-05-09T15:13:15.000Z,98632
2019-05-09T15:15:03.000Z,98623
2019-05-09T15:16:48.000Z,98628
2019-05-09T15:17:49.000Z,98624
2019-05-09T15:19:15.000Z,98641
2019-05-09T15:20:45.000Z,98634
2019-05-09T15:21:48.000Z,98637
2019-05-09T15:24:03.000Z,98643
2019-05-09T15:26:03.000Z,98644
2019-05-09T15:28:02.000Z,98642
2019-05-09T15:30:03.000Z,98642
2019-05-09T15:31:54.000Z,98647
2019-05-09T15:34:15.000Z,98646
2019-05-09T15:36:15.000Z,98651
2019-05-09T15:37:45.000Z,98646
2019-05-09T15:39:15.000Z,98647
2019-05-09T15:40:45.000Z,98656
2019-05-09T15:42:03.000Z,98651
2019-05-09T15:43:48.000Z,98654
2019-05-09T15:46:00.000Z,98657
2019-05-09T15:47:15.000Z,98653
2019-05-09T15:49:00.000Z,98660
2019-05-09T15:50:00.000Z,98659
2019-05-09T15:51:45.000Z,98656
2019-05-09T15:53:15.000Z,98657
2019-05-09T15:55:15.000Z,98657
2019-05-09T15:56:45.000Z,98658
2019-05-09T15:58:15.000Z,98650
2019-05-09T15:59:45.000Z,98650
2019-05-09T16:02:15.000Z,98650
2019-05-09T16:03:45.000Z,98649
2019-05-09T16:05:02.000Z,98657
2019-05-09T16:06:50.000Z,98657
2019-05-09T16:09:15.000Z,98656
2019-05-09T16:11:15.000Z,98655
2019-05-09T16:12:45.000Z,98659
2019-05-09T16:14:03.000Z,98657
2019-05-09T16:15:15.000Z,98656
2019-05-09T16:16:45.000Z,98651
2019-05-09T16:17:48.000Z,98655
2019-05-09T16:20:15.000Z,98652
2019-05-09T16:21:45.000Z,98658
2019-05-09T16:23:03.000Z,98661
2019-05-09T16:25:15.000Z,98666
2019-05-09T16:26:45.000Z,98660
2019-05-09T16:27:48.000Z,98667
2019-05-09T16:29:15.000Z,98668
2019-05-09T16:30:45.000Z,98670
2019-05-09T16:33:03.000Z,98665
2019-05-09T16:35:15.000Z,98667
2019-05-09T16:36:45.000Z,98674
2019-05-09T16:38:00.000Z,98672
2019-05-09T16:40:02.000Z,98681
2019-05-09T16:41:48.000Z,98676
2019-05-09T16:43:45.000Z,98677
2019-05-09T16:45:03.000Z,98678
2019-05-09T16:46:45.000Z,98674
2019-05-09T16:47:48.000Z,98675
2019-05-09T16:50:02.000Z,98678
2019-05-09T16:52:03.000Z,98676
2019-05-09T16:53:49.000Z,98680
2019-05-09T16:56:15.000Z,98682
2019-05-09T16:57:15.000Z,98685
2019-05-09T16:59:15.000Z,98692
2019-05-09T17:00:45.000Z,98674
2019-05-09T17:01:49.000Z,98689
2019-05-09T17:04:15.000Z,98690
2019-05-09T17:06:15.000Z,98690
2019-05-09T17:07:45.000Z,98688
2019-05-09T17:09:02.000Z,98692
2019-05-09T17:10:15.000Z,98689
2019-05-09T17:11:45.000Z,98684
2019-05-09T17:13:02.000Z,98687
2019-05-09T17:15:15.000Z,98693
2019-05-09T17:16:45.000Z,98688
2019-05-09T17:18:02.000Z,98698
2019-05-09T17:19:15.000Z,98695
2019-05-09T17:20:45.000Z,98693
2019-05-09T17:21:48.000Z,98695
2019-05-09T17:24:02.000Z,98698
2019-05-09T17:26:03.000Z,98699
2019-05-09T17:27:48.000Z,98705
2019-05-09T17:30:03.000Z,98702
2019-05-09T17:31:15.000Z,98710
2019-05-09T17:32:45.000Z,98707
2019-05-09T17:34:03.000Z,98715
2019-05-09T17:36:03.000Z,98711
2019-05-09T17:37:15.000Z,98718
2019-05-09T17:38:45.000Z,98719
2019-05-09T17:40:15.000Z,98719
2019-05-09T17:42:15.000Z,98718
2019-05-09T17:43:45.000Z,98719
2019-05-09T17:45:15.000Z,98717
2019-05-09T17:47:03.000Z,98718
2019-05-09T17:48:15.000Z,98723
2019-05-09T17:49:45.000Z,98720
2019-05-09T17:51:15.000Z,98723
2019-05-09T17:52:45.000Z,98728
2019-05-09T17:53:51.000Z,98735
2019-05-09T17:55:15.000Z,98731
2019-05-09T17:57:15.000Z,98732
2019-05-09T17:59:15.000Z,98736
2019-05-09T18:01:15.000Z,98738
2019-05-09T18:03:15.000Z,98740
2019-05-09T18:04:45.000Z,98688
2019-05-09T18:06:15.000Z,98741
2019-05-09T18:08:15.000Z,98746
2019-05-09T18:09:45.000Z,98747
2019-05-09T18:10:48.000Z,98749
2019-05-09T18:13:03.000Z,98752
2019-05-09T18:15:02.000Z,98754
2019-05-09T18:17:03.000Z,98752
2019-05-09T18:19:03.000Z,98756
2019-05-09T18:20:15.000Z,98758
2019-05-09T18:21:45.000Z,98760
2019-05-09T18:23:03.000Z,98759
2019-05-09T18:24:45.000Z,98757
2019-05-09T18:26:15.000Z,98763
2019-05-09T18:28:15.000Z,98770
2019-05-09T18:29:45.000Z,98768
2019-05-09T18:31:03.000Z,98772
2019-05-09T18:33:02.000Z,98773
2019-05-09T18:35:00.000Z,98775
2019-05-09T18:37:15.000Z,98782
2019-05-09T18:38:45.000Z,98779
2019-05-09T18:40:15.000Z,98784
2019-05-09T18:42:15.000Z,98786
2019-05-09T18:44:02.000Z,98794
2019-05-09T18:46:02.000Z,98792
2019-05-09T18:47:45.000Z,98802
2019-05-09T18:49:15.000Z,98805
2019-05-09T18:50:15.000Z,98806
2019-05-09T18:52:00.000Z,98807
2019-05-09T18:54:00.000Z,98815
2019-05-09T18:56:15.000Z,98827
2019-05-09T18:58:15.000Z,98826
2019-05-09T19:00:15.000Z,98835
2019-05-09T19:02:15.000Z,98835
2019-05-09T19:04:15.000Z,98838
2019-05-09T19:06:15.000Z,98852
2019-05-09T19:07:15.000Z,98851
2019-05-09T19:09:15.000Z,98850
2019-05-09T19:11:15.000Z,98848
2019-05-09T19:13:15.000Z,98844
2019-05-09T19:14:15.000Z,98851
2019-05-09T19:16:00.000Z,98850
2019-05-09T19:17:15.000Z,98851
2019-05-09T19:19:15.000Z,98848
2019-05-09T19:21:15.000Z,98854
2019-05-09T19:23:00.000Z,98857
2019-05-09T19:24:15.000Z,98855
2019-05-09T19:26:00.000Z,98848
2019-05-09T19:27:15.000Z,98851
2019-05-09T19:29:15.000Z,98846
2019-05-09T19:30:15.000Z,98847
2019-05-09T19:32:15.000Z,98847
2019-05-09T19:34:15.000Z,98847
2019-05-09T19:35:15.000Z,98847
2019-05-09T19:36:15.000Z,98848
2019-05-09T19:38:15.000Z,98848
2019-05-09T19:39:15.000Z,98850
2019-05-09T19:41:15.000Z,98851
2019-05-09T19:42:15.000Z,98849
2019-05-09T19:44:15.000Z,98855
2019-05-09T19:46:15.000Z,98853
2019-05-09T19:48:15.000Z,98865
2019-05-09T19:50:15.000Z,98866
2019-05-09T19:51:15.000Z,98871
2019-05-09T19:52:15.000Z,98870
2019-05-09T19:54:15.000Z,98867
2019-05-09T19:55:15.000Z,98888
2019-05-09T19:57:15.000Z,98897
2019-05-09T19:59:15.000Z,98911
2019-05-09T20:01:15.000Z,98909
2019-05-09T20:02:15.000Z,98905
2019-05-09T20:04:15.000Z,98919
2019-05-09T20:05:15.000Z,98921
2019-05-09T20:07:15.000Z,98915
2019-05-09T20:09:15.000Z,98924
2019-05-09T20:11:00.000Z,98918
2019-05-09T20:12:15.000Z,98921
2019-05-09T20:13:45.000Z,98928
2019-05-09T20:15:15.000Z,98926
2019-05-09T20:17:00.000Z,98924
2019-05-09T20:18:15.000Z,98934
2019-05-09T20:19:15.000Z,98931
2019-05-09T20:21:00.000Z,98939
2019-05-09T20:22:00.000Z,98937
2019-05-09T20:24:15.000Z,98937
2019-05-09T20:25:15.000Z,98925
2019-05-09T20:27:15.000Z,98939
2019-05-09T20:28:15.000Z,98946
2019-05-09T20:30:15.000Z,98947
2019-05-09T20:31:15.000Z,98951
2019-05-09T20:33:15.000Z,98950
2019-05-09T20:35:15.000Z,98963
2019-05-09T20:37:00.000Z,98961
2019-05-09T20:39:15.000Z,98974
2019-05-09T20:41:15.000Z,98974
2019-05-09T20:43:00.000Z,98971
2019-05-09T20:44:00.000Z,98976
2019-05-09T20:45:15.000Z,98977
2019-05-09T20:47:15.000Z,98977
2019-05-09T20:49:15.000Z,98977
2019-05-09T20:50:45.000Z,98987
2019-05-09T20:52:15.000Z,98989
2019-05-09T20:54:15.000Z,98991
2019-05-09T20:56:15.000Z,98996
2019-05-09T20:57:15.000Z,98998
2019-05-09T20:58:15.000Z,98998
2019-05-09T21:00:00.000Z,98994
2019-05-09T21:01:00.000Z,98995
2019-05-09T21:02:15.000Z,99002
2019-05-09T21:03:46.000Z,99005
2019-05-09T21:05:15.000Z,99008
2019-05-09T21:06:15.000Z,99018
2019-05-09T21:07:15.000Z,99015
2019-05-09T21:09:15.000Z,99015
2019-05-09T21:11:00.000Z,99016
2019-05-09T21:12:15.000Z,99022
2019-05-09T21:13:15.000Z,99024
2019-05-09T21:15:15.000Z,99025
2019-05-09T21:17:15.000Z,99028
2019-05-09T21:18:15.000Z,99015
2019-05-09T21:20:15.000Z,99021
2019-05-09T21:21:15.000Z,99024
2019-05-09T21:23:15.000Z,99021
2019-05-09T21:25:15.000Z,99021
2019-05-09T21:27:15.000Z,99032
2019-05-09T21:28:15.000Z,99025